Homestead ARB Airport
KHST : now visible

Airfield :











YOU CAN JOIN US ON...

 
LOGIN :

Register | Disclaimer

   EN    FR    IT 

 









Legend :    VFR   Marginal VFR   IFR   Intensive IFR   Very Intensive IFR
Visi :
Ceiling :
>= 8 km
>= 3000ft
5 to 8 km
1000 to 3000 ft
1500m to 5 km
500 to 1000 ft
800 to 1500m
200 to 500 ft
< 800m
< 200 ft
Symbols :   Thunderstorms  Fog  Heavy snow  Heavy precipitations  Wind > 20 kt







- Airport Elevation : 5 ft


KHST - Homestead ARB

CURRENT METAR :
  • 160656Z AUTO 24005KT 10SM BKN075 BKN090 27/25 A2992 RMK AO2 SLP135 T02680248 FZRANO TSNO $

EXPIRED METARs :
  • 160556Z AUTO 22005KT 10SM FEW048 SCT075 26/25 A2993 RMK AO2 RAB24E36 SLP139 P0000 60000 T02620249 10299 20262 58002 FZRANO TSNO $
  • 160536Z AUTO 23005KT 10SM SCT047 BKN060 27/26 A2993 RMK AO2 RAB24E36 SLP139 FZRANO TSNO $
  • 160524Z AUTO 22007KT 10SM -RA FEW047 BKN060 27/25 A2994 RMK AO2 RAB24 SLP142 FZRANO TSNO $
  • 160456Z AUTO 23004KT 10SM FEW038 27/25 A2994 RMK AO2 SLP142 T02710253 403390249 FZRANO TSNO $

TAF TAF KHST
Valid from the 16 at 00:00 until the 17 at 06:00 UTC


160000Z 1600/1706 28006KT 9999 FEW020 SCT035 QNH2988INS
BECMG 1614/1615 29009KT 9000 SHRA FEW020 BKN040 QNH2988INS
TEMPO 1618/1701 28015G25KT 9000 -TSRA BKN025CB
BECMG 1704/1705 VRB06KT 8000 BR BKN020 QNH2989INS TX34/1620Z TN25/1609Z
No reported NOTAMs for that airfield.



MET'MAP, your aeronautical weather chart ! - Copyright ORBIFLY December 2007 - Disclaimer

ORBIFLY MET'MAP TEAM :

Programming & Development : Alexandra Zaïnal
Concept & Development : Baudouin d'Aumeries
Co-Development & Prog : Marc-Olivier Méhu
Technical & hardware support : Manuel Goepfert

Contact : metmap@orbifly.com




SOURCES & CREDITS :

   NOAA       Earth
Advisory